Time;durP1;ratioP1;P1;durP2;ratioP2;P2;SDS_P1;SDS_P2;PMS_P1;PMS_P2;Temp;Humidity;BMP_temperature;BMP_pressure;BME280_temperature;BME280_humidity;BME280_pressure;Samples;Min_cycle;Max_cycle;Signal;HPM_P1;HPM_P2
2023/08/25 00:00:30;;;;;;;20.15;12.77;;;665.70;2432.00;;;;;;5061371;28;20473;-71
2023/08/25 00:02:55;;;;;;;16.65;11.80;;;665.70;2432.00;;;;;;5061498;28;20032;-72
2023/08/25 00:05:21;;;;;;;17.33;11.38;;;665.70;2432.00;;;;;;5064392;28;20016;-70
2023/08/25 00:07:47;;;;;;;15.90;12.40;;;665.80;2432.00;;;;;;5063092;28;20489;-74
2023/08/25 00:10:13;;;;;;;20.08;11.80;;;665.80;2432.00;;;;;;5058309;28;20021;-71
2023/08/25 00:12:39;;;;;;;20.80;12.48;;;665.90;2432.00;;;;;;5065113;28;20468;-71
2023/08/25 00:15:05;;;;;;;15.23;12.07;;;665.80;2432.00;;;;;;5063439;28;20028;-71
2023/08/25 00:17:32;;;;;;;16.38;11.90;;;665.80;2432.00;;;;;;5060604;28;20028;-71
2023/08/25 00:19:58;;;;;;;14.68;10.63;;;666.00;2432.00;;;;;;5061149;28;20493;-71
2023/08/25 00:22:24;;;;;;;17.75;12.27;;;666.00;2432.00;;;;;;5065688;28;20123;-70
2023/08/25 00:24:52;;;;;;;20.20;11.55;;;666.00;2432.00;;;;;;5060789;28;20376;-71
2023/08/25 00:27:18;;;;;;;16.90;11.60;;;666.00;2432.00;;;;;;5056743;28;20381;-76
2023/08/25 00:29:44;;;;;;;14.52;11.88;;;666.00;2432.00;;;;;;5059162;28;20373;-71
2023/08/25 00:32:10;;;;;;;19.70;12.23;;;666.10;2432.00;;;;;;5068959;28;20021;-71
2023/08/25 00:34:36;;;;;;;14.23;11.30;;;666.20;2432.00;;;;;;5067726;28;20032;-70
2023/08/25 00:37:01;;;;;;;19.70;12.05;;;666.30;2432.00;;;;;;5062850;28;20032;-71
2023/08/25 00:39:27;;;;;;;17.80;11.70;;;666.30;2432.00;;;;;;5071040;28;20040;-71
2023/08/25 00:41:54;;;;;;;19.35;12.23;;;666.40;2432.00;;;;;;5061662;28;20458;-71
2023/08/25 00:44:20;;;;;;;18.85;11.38;;;666.30;2432.00;;;;;;5064305;28;20032;-71
2023/08/25 00:46:46;;;;;;;17.33;12.90;;;666.30;2432.00;;;;;;5062210;28;20029;-71
2023/08/25 00:49:13;;;;;;;17.50;12.18;;;666.40;2432.00;;;;;;5063328;28;20119;-70
2023/08/25 00:51:39;;;;;;;13.75;11.75;;;666.40;2432.00;;;;;;5061703;28;20035;-71
2023/08/25 00:54:05;;;;;;;18.33;12.77;;;666.30;2432.00;;;;;;5060368;28;20107;-70
2023/08/25 00:56:32;;;;;;;16.45;12.15;;;666.30;2432.00;;;;;;5056850;28;20048;-76
2023/08/25 00:58:58;;;;;;;14.38;11.18;;;666.00;2432.00;;;;;;5056887;28;20021;-70
2023/08/25 01:01:24;;;;;;;17.35;11.95;;;666.30;2432.00;;;;;;5059386;28;20013;-71
2023/08/25 01:03:50;;;;;;;16.70;12.98;;;666.40;2432.00;;;;;;5058162;28;20033;-70
2023/08/25 01:06:16;;;;;;;13.27;11.80;;;666.20;2432.00;;;;;;5060318;28;20025;-70
2023/08/25 01:08:42;;;;;;;14.82;11.85;;;666.10;2432.00;;;;;;5058643;28;20037;-70
2023/08/25 01:11:29;;;;;;;18.50;12.10;;;666.10;2432.00;;;;;;5056287;28;20032;-71
2023/08/25 01:14:30;;;;;;;14.45;11.48;;;666.10;2432.00;;;;;;5053778;28;20108;-70
2023/08/25 01:17:04;;;;;;;18.50;12.00;;;666.00;2432.00;;;;;;5057088;28;20825;-72
2023/08/25 01:19:44;;;;;;;18.02;12.50;;;665.90;2432.00;;;;;;5056933;28;20044;-71
2023/08/25 01:22:16;;;;;;;19.52;12.38;;;665.70;2432.00;;;;;;5054264;28;20036;-71
2023/08/25 01:24:43;;;;;;;14.85;11.73;;;665.70;2432.00;;;;;;5061182;28;20035;-71
2023/08/25 01:27:10;;;;;;;15.25;11.50;;;665.80;2432.00;;;;;;5059988;28;20025;-70
2023/08/25 01:29:39;;;;;;;19.25;12.38;;;666.00;2432.00;;;;;;5055430;28;20021;-70
2023/08/25 01:32:06;;;;;;;16.70;11.63;;;665.90;2432.00;;;;;;5058210;28;20029;-70
2023/08/25 01:34:33;;;;;;;22.98;12.50;;;665.70;2432.00;;;;;;5054173;28;20019;-72
2023/08/25 01:37:19;;;;;;;16.48;11.80;;;665.60;2432.00;;;;;;5062301;28;20021;-70
2023/08/25 01:39:48;;;;;;;13.55;10.82;;;665.60;2432.00;;;;;;5058080;28;20049;-71
2023/08/25 01:42:16;;;;;;;14.80;11.95;;;665.60;2432.00;;;;;;5058065;28;20047;-72
2023/08/25 01:44:44;;;;;;;14.93;11.48;;;665.70;2432.00;;;;;;5065863;28;20017;-70
2023/08/25 01:47:10;;;;;;;19.17;12.18;;;665.90;2432.00;;;;;;5067988;28;20024;-70
2023/08/25 01:49:37;;;;;;;17.48;12.25;;;665.90;2432.00;;;;;;5059561;28;20029;-70
2023/08/25 01:52:04;;;;;;;17.88;11.90;;;665.90;2432.00;;;;;;5055571;28;20028;-71
2023/08/25 01:54:30;;;;;;;15.23;11.40;;;665.60;2432.00;;;;;;5059045;28;20047;-70
2023/08/25 01:56:56;;;;;;;13.80;11.95;;;640.70;2432.00;;;;;;5057747;28;20099;-71
2023/08/25 01:59:21;;;;;;;16.75;11.80;;;640.50;2432.00;;;;;;5056410;28;20099;-70
2023/08/25 02:01:47;;;;;;;18.08;11.98;;;640.60;2432.00;;;;;;5056850;28;20043;-74
2023/08/25 02:04:13;;;;;;;15.30;12.43;;;640.60;2432.00;;;;;;5056557;28;20021;-70
2023/08/25 02:06:38;;;;;;;16.42;11.90;;;640.70;2432.00;;;;;;5056047;28;20511;-72
2023/08/25 02:09:04;;;;;;;15.73;12.60;;;640.70;2432.00;;;;;;5052786;28;20021;-72
2023/08/25 02:11:30;;;;;;;16.33;12.23;;;640.70;2432.00;;;;;;5054798;28;20500;-73
2023/08/25 02:13:56;;;;;;;16.90;11.50;;;640.70;2432.00;;;;;;5056224;28;20025;-70
2023/08/25 02:16:21;;;;;;;25.60;12.65;;;640.60;2432.00;;;;;;5067390;28;20060;-71
2023/08/25 02:18:47;;;;;;;15.18;11.20;;;640.60;2432.00;;;;;;5055661;28;20063;-72
2023/08/25 02:21:13;;;;;;;18.23;12.70;;;640.60;2432.00;;;;;;5056871;28;20486;-71
2023/08/25 02:23:40;;;;;;;17.92;12.23;;;640.70;2432.00;;;;;;5057387;28;20096;-70
2023/08/25 02:26:05;;;;;;;15.85;12.55;;;640.60;2432.00;;;;;;5056131;28;20024;-70
2023/08/25 02:28:31;;;;;;;17.92;12.25;;;640.60;2432.00;;;;;;5053961;28;20036;-70
2023/08/25 02:30:57;;;;;;;14.48;11.93;;;640.50;2432.00;;;;;;5056885;28;20021;-70
2023/08/25 02:33:22;;;;;;;17.00;12.45;;;640.60;2432.00;;;;;;5056660;28;20028;-71
2023/08/25 02:35:48;;;;;;;17.35;12.35;;;640.30;2432.00;;;;;;5058492;28;20040;-70
2023/08/25 02:38:14;;;;;;;16.92;12.25;;;640.20;2432.00;;;;;;5066252;28;20039;-71
2023/08/25 02:40:39;;;;;;;20.25;12.68;;;640.30;2432.00;;;;;;5053931;28;20066;-71
2023/08/25 02:43:06;;;;;;;20.17;14.48;;;640.20;2432.00;;;;;;5057408;28;20107;-70
2023/08/25 02:45:35;;;;;;;18.88;13.32;;;640.10;2432.00;;;;;;5056864;28;20013;-72
2023/08/25 02:48:01;;;;;;;19.45;13.23;;;615.30;2432.00;;;;;;5055423;28;20025;-69
2023/08/25 02:50:27;;;;;;;22.77;14.10;;;615.30;2432.00;;;;;;5054365;28;20040;-70
2023/08/25 02:52:53;;;;;;;22.50;13.88;;;615.30;2432.00;;;;;;5057934;28;20031;-70
2023/08/25 02:55:20;;;;;;;24.98;14.52;;;640.10;2432.00;;;;;;5053728;28;20029;-70
2023/08/25 02:57:48;;;;;;;20.50;13.65;;;640.20;2432.00;;;;;;5059934;28;20044;-70
2023/08/25 03:00:23;;;;;;;21.23;13.77;;;640.20;2432.00;;;;;;5060033;28;20021;-71
2023/08/25 03:02:49;;;;;;;14.05;12.40;;;640.20;2432.00;;;;;;5056644;28;20044;-71
2023/08/25 03:05:15;;;;;;;19.02;12.25;;;640.30;2432.00;;;;;;5056125;28;20066;-70
2023/08/25 03:07:41;;;;;;;24.08;12.65;;;640.20;2432.00;;;;;;5060459;28;20025;-71
2023/08/25 03:10:07;;;;;;;18.35;13.00;;;640.00;2432.00;;;;;;5058581;28;20040;-71
2023/08/25 03:12:33;;;;;;;21.48;13.27;;;615.30;2432.00;;;;;;5056045;28;20020;-70
2023/08/25 03:14:59;;;;;;;18.10;13.48;;;640.00;2432.00;;;;;;5059370;28;20021;-74
2023/08/25 03:17:26;;;;;;;21.42;15.10;;;615.30;2432.00;;;;;;5058502;28;20484;-70
2023/08/25 03:19:52;;;;;;;28.38;15.27;;;615.00;2432.00;;;;;;5062111;28;20048;-70
2023/08/25 03:22:17;;;;;;;19.73;15.43;;;614.80;2432.00;;;;;;5068995;28;20032;-74
2023/08/25 03:24:43;;;;;;;19.58;16.25;;;614.70;2432.00;;;;;;5059383;28;20103;-71
2023/08/25 03:27:09;;;;;;;25.35;14.88;;;614.60;2432.00;;;;;;5059343;28;20175;-70
2023/08/25 03:29:35;;;;;;;22.98;13.73;;;614.50;2432.00;;;;;;5060827;28;20025;-70
2023/08/25 03:32:01;;;;;;;19.33;14.70;;;614.60;2432.00;;;;;;5061232;28;20406;-72
2023/08/25 03:34:29;;;;;;;21.88;14.20;;;614.60;2432.00;;;;;;5072367;28;20028;-70
2023/08/25 03:36:54;;;;;;;26.83;15.20;;;614.60;2432.00;;;;;;5070649;28;20017;-71
2023/08/25 03:39:20;;;;;;;19.38;14.32;;;614.60;2432.00;;;;;;5068652;28;20029;-69
2023/08/25 03:41:46;;;;;;;19.63;14.10;;;614.40;2432.00;;;;;;5059689;28;20059;-71
2023/08/25 03:44:12;;;;;;;22.10;15.82;;;614.40;2432.00;;;;;;5058797;28;20028;-70
2023/08/25 03:46:37;;;;;;;20.75;16.35;;;614.40;2432.00;;;;;;5056178;28;20119;-70
2023/08/25 03:49:03;;;;;;;21.23;16.60;;;614.60;2432.00;;;;;;5058677;28;20021;-71
2023/08/25 03:51:29;;;;;;;25.83;17.08;;;614.60;2432.00;;;;;;5059617;28;20029;-70
2023/08/25 03:53:55;;;;;;;24.33;16.02;;;614.60;2432.00;;;;;;5055925;28;20024;-70
2023/08/25 03:56:21;;;;;;;27.35;15.77;;;614.50;2432.00;;;;;;5057493;28;20025;-70
2023/08/25 03:58:47;;;;;;;24.00;16.15;;;614.50;2432.00;;;;;;5057056;28;20040;-70
2023/08/25 04:01:13;;;;;;;23.00;15.23;;;614.50;2432.00;;;;;;5058663;28;20017;-70
2023/08/25 04:03:39;;;;;;;22.63;14.93;;;614.50;2432.00;;;;;;5056591;28;20033;-70
2023/08/25 04:06:06;;;;;;;22.23;16.08;;;614.40;2432.00;;;;;;5059167;28;20032;-70
2023/08/25 04:08:31;;;;;;;23.15;15.68;;;589.70;2432.00;;;;;;5057753;28;20081;-70
2023/08/25 04:10:57;;;;;;;27.92;16.10;;;589.70;2432.00;;;;;;5058876;28;20025;-70
2023/08/25 04:13:23;;;;;;;21.65;15.45;;;614.40;2432.00;;;;;;5057169;28;20021;-71
2023/08/25 04:15:59;;;;;;;20.33;13.85;;;614.40;2432.00;;;;;;5055335;28;20021;-70
2023/08/25 04:18:25;;;;;;;20.70;15.18;;;589.70;2432.00;;;;;;5053501;28;20025;-71
2023/08/25 04:20:51;;;;;;;19.35;15.23;;;589.70;2432.00;;;;;;5060375;28;20036;-70
2023/08/25 04:23:17;;;;;;;20.83;14.52;;;589.70;2432.00;;;;;;5055249;28;20033;-71
2023/08/25 04:25:43;;;;;;;29.15;15.43;;;589.70;2432.00;;;;;;5065089;28;20012;-69
2023/08/25 04:28:09;;;;;;;23.65;14.60;;;614.40;2432.00;;;;;;5071433;28;20100;-70
2023/08/25 04:30:35;;;;;;;27.80;15.27;;;589.70;2432.00;;;;;;5065776;28;20052;-71
2023/08/25 04:33:00;;;;;;;21.95;14.80;;;589.70;2432.00;;;;;;5064416;28;20091;-70
2023/08/25 04:35:26;;;;;;;22.92;14.98;;;614.40;2432.00;;;;;;5063693;28;20028;-69
2023/08/25 04:37:52;;;;;;;25.60;14.70;;;614.50;2432.00;;;;;;5068842;28;20024;-70
2023/08/25 04:40:18;;;;;;;23.70;15.77;;;614.60;2432.00;;;;;;5073456;28;20021;-70
2023/08/25 04:42:44;;;;;;;27.50;14.57;;;614.70;2432.00;;;;;;5063942;28;20063;-70
2023/08/25 04:45:14;;;;;;;26.85;15.18;;;614.80;2432.00;;;;;;5069017;28;20017;-70
2023/08/25 04:47:40;;;;;;;29.58;16.15;;;614.80;2432.00;;;;;;5071854;28;20020;-70
2023/08/25 04:50:07;;;;;;;18.85;14.68;;;614.80;2432.00;;;;;;5064440;28;20357;-69
2023/08/25 04:52:36;;;;;;;25.75;14.98;;;614.80;2432.00;;;;;;5066490;28;20055;-70
2023/08/25 04:55:03;;;;;;;22.58;14.15;;;614.90;2432.00;;;;;;5063139;28;20465;-72
2023/08/25 04:57:29;;;;;;;23.00;14.55;;;615.00;2432.00;;;;;;5081791;28;20033;-71
2023/08/25 04:59:54;;;;;;;26.20;15.10;;;615.10;2432.00;;;;;;5069419;28;20070;-73
2023/08/25 05:02:20;;;;;;;27.38;15.80;;;615.20;2432.00;;;;;;5064365;28;20036;-72
2023/08/25 05:04:46;;;;;;;22.58;15.52;;;640.00;2432.00;;;;;;5071021;28;20533;-71
2023/08/25 05:07:11;;;;;;;21.30;14.50;;;640.10;2432.00;;;;;;5065051;28;20028;-71
2023/08/25 05:09:37;;;;;;;22.92;15.85;;;640.30;2432.00;;;;;;5066367;28;20032;-70
2023/08/25 05:12:03;;;;;;;30.92;15.85;;;640.30;2432.00;;;;;;5069367;28;20095;-70
2023/08/25 05:14:29;;;;;;;26.10;15.75;;;640.50;2432.00;;;;;;5063894;28;20036;-71
2023/08/25 05:16:54;;;;;;;26.98;16.05;;;640.60;2432.00;;;;;;5066601;28;20021;-70
2023/08/25 05:19:20;;;;;;;24.15;15.98;;;640.70;2432.00;;;;;;5064112;28;20041;-71
2023/08/25 05:21:46;;;;;;;25.20;15.80;;;640.80;2432.00;;;;;;5070435;28;20038;-72
2023/08/25 05:24:19;;;;;;;23.98;15.27;;;640.90;2432.00;;;;;;5066435;28;20029;-71
2023/08/25 05:26:52;;;;;;;24.98;14.73;;;665.60;2432.00;;;;;;5068247;28;20067;-71
2023/08/25 05:29:21;;;;;;;19.75;14.13;;;665.60;2432.00;;;;;;5069445;28;20035;-70
2023/08/25 05:31:47;;;;;;;21.40;14.60;;;665.70;2432.00;;;;;;5071197;28;20082;-72
2023/08/25 05:34:12;;;;;;;20.23;15.35;;;665.70;2432.00;;;;;;5067485;28;20040;-72
2023/08/25 05:36:38;;;;;;;20.33;14.57;;;665.80;2432.00;;;;;;5061632;28;20043;-70
2023/08/25 05:39:04;;;;;;;21.08;15.55;;;665.70;2432.00;;;;;;5067362;28;20074;-71
2023/08/25 05:41:30;;;;;;;22.70;15.85;;;665.70;2432.00;;;;;;5066893;28;20061;-71
2023/08/25 05:43:56;;;;;;;28.48;17.35;;;665.90;2432.00;;;;;;5062597;28;20024;-72
2023/08/25 05:46:21;;;;;;;24.02;16.38;;;665.90;2432.00;;;;;;5066842;28;20096;-72
2023/08/25 05:48:47;;;;;;;23.65;15.90;;;665.90;2432.00;;;;;;5072008;28;20024;-71
2023/08/25 05:51:13;;;;;;;25.42;16.40;;;666.10;2432.00;;;;;;5063614;28;20489;-72
2023/08/25 05:53:39;;;;;;;25.75;15.40;;;666.20;2432.00;;;;;;5068034;28;20170;-71
2023/08/25 05:56:04;;;;;;;20.42;15.88;;;666.30;2432.00;;;;;;5071413;28;20020;-71
2023/08/25 05:58:30;;;;;;;24.23;15.77;;;666.50;2432.00;;;;;;5069936;28;20472;-71
2023/08/25 06:00:56;;;;;;;18.73;15.63;;;666.40;2432.00;;;;;;5067219;28;20484;-72
2023/08/25 06:03:23;;;;;;;20.90;15.25;;;691.20;2432.00;;;;;;5065460;28;20060;-72
2023/08/25 06:05:51;;;;;;;23.50;15.68;;;691.30;2432.00;;;;;;5061059;28;20017;-72
2023/08/25 06:08:18;;;;;;;17.92;14.02;;;691.40;2432.00;;;;;;5067837;28;20029;-72
2023/08/25 06:10:43;;;;;;;21.92;15.52;;;691.60;2432.00;;;;;;5066084;28;20032;-73
2023/08/25 06:13:09;;;;;;;20.13;16.40;;;691.70;2432.00;;;;;;5063169;28;20037;-71
2023/08/25 06:15:36;;;;;;;24.33;15.82;;;691.60;2432.00;;;;;;5069668;28;20382;-72
2023/08/25 06:18:02;;;;;;;17.38;14.98;;;691.80;2432.00;;;;;;5061128;28;20135;-73
2023/08/25 06:20:30;;;;;;;24.08;16.42;;;691.80;2432.00;;;;;;5068506;28;20036;-71
2023/08/25 06:22:56;;;;;;;28.65;15.93;;;691.90;2432.00;;;;;;5068401;28;20041;-71
2023/08/25 06:25:22;;;;;;;21.42;15.38;;;692.00;2432.00;;;;;;5063488;28;20025;-71
2023/08/25 06:27:48;;;;;;;21.70;15.07;;;716.80;2432.00;;;;;;5064109;28;20040;-70
2023/08/25 06:30:14;;;;;;;17.42;13.98;;;716.90;2432.00;;;;;;5060938;28;20025;-71
2023/08/25 06:32:40;;;;;;;20.92;14.75;;;717.10;2432.00;;;;;;5069870;28;20025;-71
2023/08/25 06:35:06;;;;;;;18.73;13.55;;;717.20;2432.00;;;;;;5065811;28;20079;-73
2023/08/25 06:37:32;;;;;;;20.55;12.75;;;717.30;2432.00;;;;;;5068089;28;20384;-72
2023/08/25 06:39:58;;;;;;;17.30;12.85;;;717.50;2432.00;;;;;;5066602;28;20028;-70
2023/08/25 06:42:24;;;;;;;18.90;13.50;;;717.70;2432.00;;;;;;5074788;28;20523;-72
2023/08/25 06:44:49;;;;;;;17.05;13.43;;;717.70;2432.00;;;;;;5067027;28;20016;-72
2023/08/25 06:47:15;;;;;;;20.48;13.13;;;742.40;2432.00;;;;;;5071329;28;20419;-71
2023/08/25 06:49:41;;;;;;;17.52;12.90;;;742.50;2432.00;;;;;;5066774;28;20415;-70
2023/08/25 06:52:06;;;;;;;16.73;12.30;;;742.70;2432.00;;;;;;5071763;28;20115;-71
2023/08/25 06:54:33;;;;;;;18.80;13.52;;;742.90;2432.00;;;;;;5068645;28;20483;-70
2023/08/25 06:56:58;;;;;;;21.50;16.60;;;743.00;2432.00;;;;;;5071498;28;20115;-72
2023/08/25 06:59:24;;;;;;;18.80;13.55;;;743.10;2432.00;;;;;;5066749;28;20123;-70
2023/08/25 07:01:50;;;;;;;14.30;12.40;;;743.30;2432.00;;;;;;5073280;28;20068;-73
2023/08/25 07:04:15;;;;;;;13.88;11.73;;;768.10;2432.00;;;;;;5068298;28;20116;-72
2023/08/25 07:06:41;;;;;;;15.10;11.95;;;768.40;2380.80;;;;;;5069383;28;20100;-72
2023/08/25 07:09:07;;;;;;;25.05;12.75;;;768.60;2304.00;;;;;;5065349;28;20021;-71
2023/08/25 07:11:33;;;;;;;15.73;11.40;;;768.60;2380.80;;;;;;5072159;28;20021;-71
2023/08/25 07:13:59;;;;;;;21.38;11.38;;;768.90;2432.00;;;;;;5066932;28;20087;-74
2023/08/25 07:16:25;;;;;;;22.98;10.98;;;768.90;2406.40;;;;;;5071209;28;20028;-73
2023/08/25 07:18:51;;;;;;;14.23;10.18;;;793.60;2329.60;;;;;;5064809;28;20140;-72
2023/08/25 07:21:16;;;;;;;15.85;11.52;;;794.00;2329.60;;;;;;5071551;28;20025;-72
2023/08/25 07:23:42;;;;;;;16.30;12.52;;;794.40;2201.60;;;;;;5065617;28;20377;-72
2023/08/25 07:26:09;;;;;;;15.63;12.60;;;794.50;2150.40;;;;;;5071143;28;20380;-72
2023/08/25 07:28:35;;;;;;;16.05;12.32;;;819.30;2099.20;;;;;;5065992;28;20036;-74
2023/08/25 07:31:01;;;;;;;18.77;13.32;;;819.50;2073.60;;;;;;5070348;28;20029;-71
2023/08/25 07:33:27;;;;;;;15.07;11.68;;;819.60;2048.00;;;;;;5070910;28;20029;-71
2023/08/25 07:35:52;;;;;;;17.17;12.05;;;819.80;2048.00;;;;;;5067600;28;20024;-71
2023/08/25 07:38:18;;;;;;;13.48;11.23;;;820.10;2048.00;;;;;;5063681;28;20036;-72
2023/08/25 07:40:44;;;;;;;15.15;12.38;;;844.90;1971.20;;;;;;5074094;28;20485;-72
2023/08/25 07:43:10;;;;;;;19.85;12.35;;;844.90;1868.80;;;;;;5073489;28;20033;-73
2023/08/25 07:45:36;;;;;;;20.55;12.88;;;845.00;1894.40;;;;;;5069013;28;20027;-73
2023/08/25 07:48:02;;;;;;;19.05;11.82;;;845.40;1817.60;;;;;;5070550;28;20025;-73
2023/08/25 07:50:30;;;;;;;17.27;10.68;;;845.20;1894.40;;;;;;5066382;28;20039;-73
2023/08/25 07:52:56;;;;;;;14.60;8.98;;;845.20;1920.00;;;;;;5068874;28;20020;-72
2023/08/25 07:55:22;;;;;;;12.95;9.77;;;845.50;1843.20;;;;;;5066950;28;20029;-74
2023/08/25 07:57:49;;;;;;;11.77;9.68;;;845.30;1817.60;;;;;;5068932;28;20032;-74
2023/08/25 08:00:15;;;;;;;10.55;7.60;;;870.90;1792.00;;;;;;5070771;28;20381;-74
2023/08/25 08:02:42;;;;;;;11.57;9.25;;;871.10;1766.40;;;;;;5068574;28;20032;-74
2023/08/25 08:05:08;;;;;;;12.45;8.90;;;871.20;1689.60;;;;;;5066072;28;20037;-74
2023/08/25 08:07:34;;;;;;;12.35;9.30;;;896.60;1587.20;;;;;;5069432;28;20388;-72
2023/08/25 08:10:00;;;;;;;14.07;8.73;;;896.80;1638.40;;;;;;5063391;28;20017;-74
2023/08/25 08:12:26;;;;;;;12.73;8.73;;;896.90;1536.00;;;;;;5069840;28;20027;-73
2023/08/25 08:14:51;;;;;;;14.00;8.48;;;922.20;1587.20;;;;;;5066017;28;20021;-73
2023/08/25 08:17:18;;;;;;;12.00;8.02;;;947.20;1536.00;;;;;;5065660;28;20024;-73
2023/08/25 08:19:44;;;;;;;10.73;7.78;;;947.20;1510.40;;;;;;5071904;28;20053;-74
2023/08/25 08:22:10;;;;;;;12.45;8.77;;;948.10;1484.80;;;;;;5074383;28;20079;-73
2023/08/25 08:24:36;;;;;;;9.65;8.00;;;948.10;1408.00;;;;;;5073298;28;20035;-72
2023/08/25 08:27:02;;;;;;;12.50;8.23;;;948.10;1433.60;;;;;;5064956;28;20021;-73
2023/08/25 08:29:28;;;;;;;11.30;8.02;;;948.10;1382.40;;;;;;5068944;28;20025;-72
2023/08/25 08:31:57;;;;;;;9.68;8.05;;;972.90;1433.60;;;;;;5063627;28;20372;-73
2023/08/25 08:34:23;;;;;;;10.80;7.45;;;947.90;1382.40;;;;;;5070314;28;20020;-72
2023/08/25 08:36:49;;;;;;;11.80;8.35;;;948.10;1382.40;;;;;;5066843;28;20027;-72
2023/08/25 08:39:15;;;;;;;8.95;7.68;;;947.80;1356.80;;;;;;5070202;28;20028;-72
2023/08/25 08:41:41;;;;;;;10.80;7.70;;;947.70;1331.20;;;;;;5062845;28;20017;-72
2023/08/25 08:44:10;;;;;;;7.95;7.10;;;948.10;1331.20;;;;;;5068742;28;20039;-72
2023/08/25 08:46:38;;;;;;;11.15;7.35;;;947.70;1382.40;;;;;;5068671;28;20427;-72
2023/08/25 08:49:03;;;;;;;9.73;6.80;;;972.90;1356.80;;;;;;5069147;28;20531;-72
2023/08/25 08:51:30;;;;;;;12.15;8.05;;;948.10;1254.40;;;;;;5064558;28;20112;-72
2023/08/25 08:53:58;;;;;;;8.02;6.80;;;973.00;1305.60;;;;;;5069173;28;20016;-72
2023/08/25 08:56:24;;;;;;;10.40;7.45;;;973.00;1331.20;;;;;;5064333;28;20435;-75
2023/08/25 08:58:50;;;;;;;14.05;6.75;;;973.30;1228.80;;;;;;5068585;28;20515;-73
2023/08/25 09:01:17;;;;;;;10.18;7.10;;;972.90;1177.60;;;;;;5072666;28;20024;-72
2023/08/25 09:03:47;;;;;;;12.60;7.30;;;947.50;1280.00;;;;;;5064391;28;20043;-73
2023/08/25 09:06:13;;;;;;;9.55;6.43;;;947.80;1228.80;;;;;;5059910;28;20017;-72
2023/08/25 09:08:39;;;;;;;8.30;5.78;;;973.20;1228.80;;;;;;5068682;28;20028;-73
2023/08/25 09:11:06;;;;;;;11.32;7.72;;;973.50;1177.60;;;;;;5067857;28;20044;-72
2023/08/25 09:13:35;;;;;;;8.93;6.82;;;973.70;1228.80;;;;;;5068341;28;20036;-72
2023/08/25 09:16:12;;;;;;;14.05;6.88;;;973.50;1203.20;;;;;;5064207;28;20059;-73
2023/08/25 09:18:38;;;;;;;9.95;6.65;;;973.70;1254.40;;;;;;5072546;28;20040;-73
2023/08/25 09:21:20;;;;;;;9.95;6.32;;;973.60;1203.20;;;;;;5071383;28;20059;-72
2023/08/25 09:23:56;;;;;;;9.30;6.65;;;998.50;1228.80;;;;;;5060147;28;20036;-72
2023/08/25 09:26:22;;;;;;;10.77;6.60;;;973.30;1228.80;;;;;;5072320;28;20028;-72
2023/08/25 09:28:51;;;;;;;10.73;6.70;;;973.30;1254.40;;;;;;5065487;28;20377;-70
2023/08/25 09:31:21;;;;;;;8.63;6.82;;;973.20;1305.60;;;;;;5062959;28;20075;-72
2023/08/25 09:33:49;;;;;;;11.13;7.43;;;973.20;1280.00;;;;;;5068318;28;20100;-71
2023/08/25 09:36:15;;;;;;;12.05;7.80;;;973.00;1228.80;;;;;;5066834;28;20156;-70
2023/08/25 09:38:46;;;;;;;12.98;6.70;;;973.60;1203.20;;;;;;5063418;28;20088;-71
2023/08/25 09:41:12;;;;;;;9.18;7.05;;;973.70;1177.60;;;;;;5059030;28;20029;-72
2023/08/25 09:43:40;;;;;;;8.40;6.63;;;998.80;1177.60;;;;;;5072384;28;20036;-74
2023/08/25 09:46:08;;;;;;;7.03;6.30;;;998.50;1203.20;;;;;;5072084;28;20025;-73
2023/08/25 09:48:35;;;;;;;10.45;6.78;;;998.80;1177.60;;;;;;5063164;28;20040;-73
2023/08/25 09:51:01;;;;;;;9.50;6.25;;;998.80;1152.00;;;;;;5064478;28;20024;-70
2023/08/25 09:53:33;;;;;;;9.85;6.00;;;998.90;1177.60;;;;;;5063051;28;20035;-72
2023/08/25 09:56:06;;;;;;;11.90;6.07;;;998.90;1152.00;;;;;;5067193;28;20021;-71
2023/08/25 09:58:34;;;;;;;7.18;6.30;;;998.90;1152.00;;;;;;5067909;28;20021;-74
2023/08/25 10:01:00;;;;;;;9.63;6.22;;;999.10;1177.60;;;;;;5061747;28;20420;-70
2023/08/25 10:03:27;;;;;;;8.27;6.72;;;999.30;1177.60;;;;;;5063909;28;20048;-72
2023/08/25 10:05:53;;;;;;;10.55;6.70;;;999.10;1126.40;;;;;;5067745;28;20031;-72
2023/08/25 10:08:19;;;;;;;7.00;6.13;;;999.00;1152.00;;;;;;5067706;28;20055;-71
2023/08/25 10:10:45;;;;;;;8.48;6.82;;;998.90;1177.60;;;;;;5071980;28;20020;-74
2023/08/25 10:13:18;;;;;;;8.70;6.00;;;998.40;1177.60;;;;;;5068351;28;20127;-71
2023/08/25 10:15:46;;;;;;;8.63;6.18;;;973.60;1228.80;;;;;;5069608;28;20116;-71
2023/08/25 10:18:12;;;;;;;8.18;6.85;;;973.50;1203.20;;;;;;5069479;28;20044;-71
2023/08/25 10:20:40;;;;;;;7.85;5.90;;;973.20;1254.40;;;;;;5068566;28;20029;-72
2023/08/25 10:23:08;;;;;;;8.73;6.53;;;973.70;1203.20;;;;;;5072895;28;20039;-75
2023/08/25 10:25:36;;;;;;;7.35;6.15;;;973.60;1152.00;;;;;;5074983;28;20016;-72
2023/08/25 10:28:04;;;;;;;8.10;6.70;;;998.40;1152.00;;;;;;5070353;28;20028;-71
2023/08/25 10:30:30;;;;;;;11.45;6.85;;;998.80;1152.00;;;;;;5068824;28;20021;-70
2023/08/25 10:33:04;;;;;;;18.02;6.88;;;998.80;1152.00;;;;;;5070504;28;20086;-70
2023/08/25 10:35:44;;;;;;;8.00;6.43;;;998.90;1126.40;;;;;;5071558;28;20104;-69
2023/08/25 10:38:19;;;;;;;9.48;6.43;;;998.80;1152.00;;;;;;5063998;28;20024;-71
2023/08/25 10:40:54;;;;;;;8.60;6.40;;;998.50;1152.00;;;;;;5069274;28;20103;-71
2023/08/25 10:43:33;;;;;;;9.68;6.18;;;998.90;1152.00;;;;;;5067043;28;20045;-71
2023/08/25 10:46:08;;;;;;;7.38;5.95;;;999.10;1126.40;;;;;;5068569;28;20021;-71
2023/08/25 10:48:36;;;;;;;6.43;5.65;;;1024.00;1152.00;;;;;;5072348;28;20547;-72
2023/08/25 10:51:08;;;;;;;10.07;6.80;;;999.30;1152.00;;;;;;5070917;28;20045;-71
2023/08/25 10:53:54;;;;;;;8.82;6.25;;;999.30;1126.40;;;;;;5070456;28;20047;-71
2023/08/25 10:56:22;;;;;;;9.25;7.45;;;998.80;1177.60;;;;;;5062073;28;20074;-71
2023/08/25 10:59:05;;;;;;;9.90;6.20;;;998.90;1152.00;;;;;;5069350;28;20072;-71
2023/08/25 11:01:54;;;;;;;11.63;6.95;;;973.70;1152.00;;;;;;5061905;28;20025;-71
2023/08/25 11:04:26;;;;;;;14.60;6.65;;;998.60;1203.20;;;;;;5062479;28;20072;-72
2023/08/25 11:06:53;;;;;;;9.52;6.18;;;998.50;1177.60;;;;;;5070591;28;20043;-74
2023/08/25 11:09:35;;;;;;;8.48;6.82;;;972.90;1203.20;;;;;;5066263;28;20370;-71
2023/08/25 11:12:08;;;;;;;9.77;6.00;;;973.60;1126.40;;;;;;5074273;28;20032;-71
2023/08/25 11:14:34;;;;;;;11.13;6.43;;;973.70;1126.40;;;;;;5065848;28;20056;-71
2023/08/25 11:17:05;;;;;;;12.48;6.43;;;973.30;1152.00;;;;;;5066126;28;20021;-71
2023/08/25 11:19:32;;;;;;;9.30;6.50;;;973.20;1177.60;;;;;;5069375;28;20056;-71
2023/08/25 11:22:03;;;;;;;10.68;6.20;;;973.10;1177.60;;;;;;5072417;28;20100;-70
2023/08/25 11:24:30;;;;;;;11.20;6.22;;;973.30;1126.40;;;;;;5070762;28;20052;-71
2023/08/25 11:27:03;;;;;;;6.65;5.03;;;973.60;1126.40;;;;;;5070624;28;20052;-72
2023/08/25 11:29:29;;;;;;;10.23;6.68;;;973.50;1100.80;;;;;;5066030;28;20381;-71
2023/08/25 11:31:55;;;;;;;10.68;6.45;;;998.90;1126.40;;;;;;5070682;28;20017;-71
2023/08/25 11:34:21;;;;;;;8.55;6.07;;;998.70;1100.80;;;;;;5072283;28;20388;-71
2023/08/25 11:36:47;;;;;;;9.23;5.85;;;999.10;1152.00;;;;;;5068830;28;20486;-72
2023/08/25 11:39:19;;;;;;;9.15;5.43;;;998.90;1152.00;;;;;;5069992;28;20056;-71
2023/08/25 11:41:46;;;;;;;8.25;6.07;;;1024.00;1100.80;;;;;;5064348;28;20067;-71
2023/08/25 11:44:12;;;;;;;11.15;5.65;;;1024.00;1049.60;;;;;;5071937;28;20044;-71
2023/08/25 11:46:39;;;;;;;10.20;6.07;;;1024.70;1024.00;;;;;;5071888;28;20031;-71
2023/08/25 11:49:06;;;;;;;8.25;5.72;;;1049.70;998.40;;;;;;5071679;28;20033;-72
2023/08/25 11:51:35;;;;;;;8.88;5.85;;;1024.10;1075.20;;;;;;5068058;28;20029;-71
2023/08/25 11:54:02;;;;;;;8.70;5.65;;;1024.30;1126.40;;;;;;5072985;28;20047;-71
2023/08/25 11:56:27;;;;;;;7.15;5.15;;;1024.60;998.40;;;;;;5070895;28;20091;-72
2023/08/25 11:58:53;;;;;;;6.85;5.15;;;1024.90;947.20;;;;;;5069665;28;20477;-71
2023/08/25 12:01:19;;;;;;;8.75;5.35;;;1049.60;998.40;;;;;;5061196;28;20028;-72
2023/08/25 12:03:46;;;;;;;10.70;5.22;;;1024.30;998.40;;;;;;5063874;28;20043;-72